sensor_id;sensor_type;location;lat;lon;timestamp;pressure;altitude;pressure_sealevel;temperature;humidity
35892;BME280;21993;42.672;23.296;2023-03-15T00:01:06;93747.75;;;9.53;44.90
35892;BME280;21993;42.672;23.296;2023-03-15T00:03:33;93742.03;;;9.58;45.10
35892;BME280;21993;42.672;23.296;2023-03-15T00:06:03;93736.53;;;9.43;44.68
35892;BME280;21993;42.672;23.296;2023-03-15T00:08:29;93732.69;;;9.55;45.39
35892;BME280;21993;42.672;23.296;2023-03-15T00:10:57;93724.88;;;9.38;45.61
35892;BME280;21993;42.672;23.296;2023-03-15T00:13:23;93723.63;;;9.50;45.52
35892;BME280;21993;42.672;23.296;2023-03-15T00:15:50;93742.44;;;9.45;45.04
35892;BME280;21993;42.672;23.296;2023-03-15T00:18:18;93742.59;;;9.44;45.12
35892;BME280;21993;42.672;23.296;2023-03-15T00:20:44;93731.38;;;9.51;45.00
35892;BME280;21993;42.672;23.296;2023-03-15T00:23:11;93732.84;;;9.54;45.06
35892;BME280;21993;42.672;23.296;2023-03-15T00:25:37;93735.16;;;9.57;44.55
35892;BME280;21993;42.672;23.296;2023-03-15T00:28:02;93729.19;;;9.47;44.36
35892;BME280;21993;42.672;23.296;2023-03-15T00:30:28;93729.56;;;9.52;44.64
35892;BME280;21993;42.672;23.296;2023-03-15T00:32:53;93725.66;;;9.56;45.24
35892;BME280;21993;42.672;23.296;2023-03-15T00:35:20;93733.06;;;9.61;44.62
35892;BME280;21993;42.672;23.296;2023-03-15T00:37:46;93718.44;;;9.58;45.42
35892;BME280;21993;42.672;23.296;2023-03-15T00:40:12;93726.47;;;9.56;45.17
35892;BME280;21993;42.672;23.296;2023-03-15T00:42:38;93729.63;;;9.60;44.80
35892;BME280;21993;42.672;23.296;2023-03-15T00:45:05;93721.69;;;9.52;45.26
35892;BME280;21993;42.672;23.296;2023-03-15T00:47:30;93722.22;;;9.55;45.35
35892;BME280;21993;42.672;23.296;2023-03-15T00:49:56;93714.94;;;9.49;45.42
35892;BME280;21993;42.672;23.296;2023-03-15T00:52:21;93704.03;;;9.54;45.13
35892;BME280;21993;42.672;23.296;2023-03-15T00:54:51;93692.56;;;9.55;44.69
35892;BME280;21993;42.672;23.296;2023-03-15T00:57:17;93699.34;;;9.40;45.16
35892;BME280;21993;42.672;23.296;2023-03-15T00:59:42;93699.38;;;9.22;45.28
35892;BME280;21993;42.672;23.296;2023-03-15T01:02:09;93693.13;;;9.41;45.41
35892;BME280;21993;42.672;23.296;2023-03-15T01:04:35;93684.22;;;9.51;45.89
35892;BME280;21993;42.672;23.296;2023-03-15T01:07:00;93688.63;;;9.51;45.00
35892;BME280;21993;42.672;23.296;2023-03-15T01:09:25;93685.38;;;9.57;44.88
35892;BME280;21993;42.672;23.296;2023-03-15T01:11:51;93685.53;;;9.55;45.83
35892;BME280;21993;42.672;23.296;2023-03-15T01:14:17;93689.50;;;9.59;45.46
35892;BME280;21993;42.672;23.296;2023-03-15T01:16:44;93687.50;;;9.53;45.70
35892;BME280;21993;42.672;23.296;2023-03-15T01:19:11;93674.88;;;9.57;45.90
35892;BME280;21993;42.672;23.296;2023-03-15T01:21:36;93682.47;;;9.60;45.16
35892;BME280;21993;42.672;23.296;2023-03-15T01:24:02;93677.50;;;9.57;45.42
35892;BME280;21993;42.672;23.296;2023-03-15T01:26:27;93671.81;;;9.62;45.21
35892;BME280;21993;42.672;23.296;2023-03-15T01:28:53;93662.00;;;9.64;45.40
35892;BME280;21993;42.672;23.296;2023-03-15T01:31:22;93665.22;;;9.57;45.79
35892;BME280;21993;42.672;23.296;2023-03-15T01:33:48;93665.88;;;9.51;46.34
35892;BME280;21993;42.672;23.296;2023-03-15T01:36:14;93664.47;;;9.39;46.24
35892;BME280;21993;42.672;23.296;2023-03-15T01:38:40;93655.03;;;9.46;46.00
35892;BME280;21993;42.672;23.296;2023-03-15T01:41:05;93658.56;;;9.37;45.96
35892;BME280;21993;42.672;23.296;2023-03-15T01:43:32;93653.00;;;9.40;46.52
35892;BME280;21993;42.672;23.296;2023-03-15T01:48:37;93653.88;;;9.49;46.38
35892;BME280;21993;42.672;23.296;2023-03-15T01:51:12;93639.31;;;9.46;46.34
35892;BME280;21993;42.672;23.296;2023-03-15T01:53:44;93638.94;;;9.41;45.99
35892;BME280;21993;42.672;23.296;2023-03-15T01:56:10;93631.94;;;9.42;45.82
35892;BME280;21993;42.672;23.296;2023-03-15T01:58:37;93637.78;;;9.36;46.28
35892;BME280;21993;42.672;23.296;2023-03-15T02:01:03;93639.75;;;9.34;46.51
35892;BME280;21993;42.672;23.296;2023-03-15T02:03:40;93634.22;;;9.45;46.23
35892;BME280;21993;42.672;23.296;2023-03-15T02:06:13;93632.22;;;9.39;45.98
35892;BME280;21993;42.672;23.296;2023-03-15T02:08:45;93610.78;;;9.35;46.87
35892;BME280;21993;42.672;23.296;2023-03-15T02:11:14;93610.09;;;9.33;46.47
35892;BME280;21993;42.672;23.296;2023-03-15T02:13:42;93615.19;;;9.35;46.91
35892;BME280;21993;42.672;23.296;2023-03-15T02:16:09;93610.78;;;9.35;46.51
35892;BME280;21993;42.672;23.296;2023-03-15T02:18:34;93602.88;;;9.27;46.91
35892;BME280;21993;42.672;23.296;2023-03-15T02:26:41;93603.84;;;9.26;46.81
35892;BME280;21993;42.672;23.296;2023-03-15T02:29:08;93599.69;;;9.15;47.23
35892;BME280;21993;42.672;23.296;2023-03-15T02:31:34;93598.41;;;9.19;46.27
35892;BME280;21993;42.672;23.296;2023-03-15T02:34:03;93603.94;;;9.16;45.63
35892;BME280;21993;42.672;23.296;2023-03-15T02:36:29;93600.72;;;8.96;46.24
35892;BME280;21993;42.672;23.296;2023-03-15T02:38:56;93597.53;;;9.11;46.38
35892;BME280;21993;42.672;23.296;2023-03-15T02:41:36;93606.22;;;9.11;46.65
35892;BME280;21993;42.672;23.296;2023-03-15T02:44:16;93594.91;;;9.11;46.61
35892;BME280;21993;42.672;23.296;2023-03-15T02:46:46;93598.69;;;9.16;46.73
35892;BME280;21993;42.672;23.296;2023-03-15T02:49:12;93592.47;;;9.09;46.80
35892;BME280;21993;42.672;23.296;2023-03-15T02:51:38;93588.19;;;9.08;47.37
35892;BME280;21993;42.672;23.296;2023-03-15T02:54:04;93583.47;;;9.12;47.37
35892;BME280;21993;42.672;23.296;2023-03-15T02:56:29;93589.16;;;9.07;47.12
35892;BME280;21993;42.672;23.296;2023-03-15T02:58:57;93586.47;;;8.99;46.95
35892;BME280;21993;42.672;23.296;2023-03-15T03:01:23;93588.00;;;9.01;47.82
35892;BME280;21993;42.672;23.296;2023-03-15T03:03:48;93586.69;;;9.06;47.87
35892;BME280;21993;42.672;23.296;2023-03-15T03:06:15;93582.31;;;8.88;48.90
35892;BME280;21993;42.672;23.296;2023-03-15T03:08:42;93575.78;;;8.84;49.33
35892;BME280;21993;42.672;23.296;2023-03-15T03:11:12;93568.09;;;8.91;47.79
35892;BME280;21993;42.672;23.296;2023-03-15T03:13:37;93575.97;;;8.91;48.65
35892;BME280;21993;42.672;23.296;2023-03-15T03:16:03;93558.34;;;8.93;48.46
35892;BME280;21993;42.672;23.296;2023-03-15T03:18:29;93562.75;;;8.92;48.27
35892;BME280;21993;42.672;23.296;2023-03-15T03:21:00;93567.34;;;8.98;48.72
35892;BME280;21993;42.672;23.296;2023-03-15T03:23:27;93567.75;;;8.86;48.55
35892;BME280;21993;42.672;23.296;2023-03-15T03:25:53;93565.19;;;8.94;48.67
35892;BME280;21993;42.672;23.296;2023-03-15T03:28:20;93559.97;;;8.94;48.87
35892;BME280;21993;42.672;23.296;2023-03-15T03:30:46;93551.31;;;8.93;49.45
35892;BME280;21993;42.672;23.296;2023-03-15T03:33:11;93557.81;;;8.89;48.45
35892;BME280;21993;42.672;23.296;2023-03-15T03:35:36;93551.41;;;8.84;47.16
35892;BME280;21993;42.672;23.296;2023-03-15T03:38:02;93548.25;;;8.80;47.27
35892;BME280;21993;42.672;23.296;2023-03-15T03:40:27;93541.88;;;8.83;46.97
35892;BME280;21993;42.672;23.296;2023-03-15T03:42:52;93551.09;;;8.87;48.28
35892;BME280;21993;42.672;23.296;2023-03-15T03:45:18;93534.16;;;8.73;47.86
35892;BME280;21993;42.672;23.296;2023-03-15T03:47:43;93544.66;;;8.81;48.92
35892;BME280;21993;42.672;23.296;2023-03-15T03:50:10;93550.59;;;8.83;49.54
35892;BME280;21993;42.672;23.296;2023-03-15T03:52:35;93547.09;;;8.74;48.92
35892;BME280;21993;42.672;23.296;2023-03-15T03:55:01;93538.16;;;8.85;47.92
35892;BME280;21993;42.672;23.296;2023-03-15T03:57:27;93529.72;;;8.91;47.67
35892;BME280;21993;42.672;23.296;2023-03-15T03:59:53;93532.81;;;8.95;46.25
35892;BME280;21993;42.672;23.296;2023-03-15T04:02:18;93529.84;;;8.90;47.74
35892;BME280;21993;42.672;23.296;2023-03-15T04:04:44;93523.13;;;8.87;47.03
35892;BME280;21993;42.672;23.296;2023-03-15T04:07:09;93516.75;;;8.90;47.33
35892;BME280;21993;42.672;23.296;2023-03-15T04:09:34;93520.56;;;8.95;48.23
35892;BME280;21993;42.672;23.296;2023-03-15T04:12:02;93524.97;;;8.95;48.52
35892;BME280;21993;42.672;23.296;2023-03-15T04:14:27;93527.22;;;8.90;48.11
35892;BME280;21993;42.672;23.296;2023-03-15T04:16:53;93519.53;;;8.62;48.91
35892;BME280;21993;42.672;23.296;2023-03-15T04:19:19;93519.97;;;8.76;48.25
35892;BME280;21993;42.672;23.296;2023-03-15T04:21:44;93523.22;;;8.78;48.70
35892;BME280;21993;42.672;23.296;2023-03-15T04:24:11;93524.75;;;8.62;48.76
35892;BME280;21993;42.672;23.296;2023-03-15T04:26:37;93527.66;;;8.77;48.97
35892;BME280;21993;42.672;23.296;2023-03-15T04:29:02;93518.22;;;8.84;49.12
35892;BME280;21993;42.672;23.296;2023-03-15T04:31:28;93515.72;;;8.83;49.45
35892;BME280;21993;42.672;23.296;2023-03-15T04:33:53;93510.69;;;8.89;49.67
35892;BME280;21993;42.672;23.296;2023-03-15T04:36:23;93512.22;;;8.92;49.39
35892;BME280;21993;42.672;23.296;2023-03-15T04:38:49;93513.09;;;8.74;49.80
35892;BME280;21993;42.672;23.296;2023-03-15T04:41:15;93509.53;;;8.84;49.53
35892;BME280;21993;42.672;23.296;2023-03-15T04:43:42;93518.22;;;8.84;49.62
35892;BME280;21993;42.672;23.296;2023-03-15T04:46:08;93511.47;;;8.82;49.75
35892;BME280;21993;42.672;23.296;2023-03-15T04:48:34;93511.84;;;8.87;48.83
35892;BME280;21993;42.672;23.296;2023-03-15T04:51:00;93517.56;;;8.90;48.63
35892;BME280;21993;42.672;23.296;2023-03-15T04:53:25;93517.88;;;8.87;48.55
35892;BME280;21993;42.672;23.296;2023-03-15T04:55:51;93510.53;;;8.91;48.83
35892;BME280;21993;42.672;23.296;2023-03-15T04:58:16;93509.44;;;8.93;48.02
35892;BME280;21993;42.672;23.296;2023-03-15T05:00:42;93506.66;;;8.95;47.90
35892;BME280;21993;42.672;23.296;2023-03-15T05:03:07;93506.00;;;8.93;47.97
35892;BME280;21993;42.672;23.296;2023-03-15T05:05:32;93501.88;;;8.90;47.98
35892;BME280;21993;42.672;23.296;2023-03-15T05:07:58;93513.03;;;8.92;47.75
35892;BME280;21993;42.672;23.296;2023-03-15T05:10:23;93513.84;;;8.93;48.20
35892;BME280;21993;42.672;23.296;2023-03-15T05:12:50;93518.06;;;8.86;46.81
35892;BME280;21993;42.672;23.296;2023-03-15T05:15:15;93525.38;;;8.82;47.67
35892;BME280;21993;42.672;23.296;2023-03-15T05:17:41;93520.78;;;8.76;47.26
35892;BME280;21993;42.672;23.296;2023-03-15T05:20:07;93514.72;;;8.76;46.88
35892;BME280;21993;42.672;23.296;2023-03-15T05:22:36;93511.13;;;8.77;44.76
35892;BME280;21993;42.672;23.296;2023-03-15T05:25:01;93514.91;;;8.82;44.92
35892;BME280;21993;42.672;23.296;2023-03-15T05:27:27;93507.41;;;8.87;45.26
35892;BME280;21993;42.672;23.296;2023-03-15T05:29:53;93504.44;;;8.82;43.75
35892;BME280;21993;42.672;23.296;2023-03-15T05:32:18;93497.72;;;8.80;44.90
35892;BME280;21993;42.672;23.296;2023-03-15T05:34:44;93497.34;;;8.66;45.39
35892;BME280;21993;42.672;23.296;2023-03-15T05:37:09;93497.19;;;8.68;45.80
35892;BME280;21993;42.672;23.296;2023-03-15T05:39:36;93506.34;;;8.72;44.49
35892;BME280;21993;42.672;23.296;2023-03-15T05:42:02;93504.38;;;8.74;44.00
35892;BME280;21993;42.672;23.296;2023-03-15T05:44:27;93501.44;;;8.69;44.12
35892;BME280;21993;42.672;23.296;2023-03-15T05:46:52;93505.19;;;8.49;45.21
35892;BME280;21993;42.672;23.296;2023-03-15T05:49:18;93493.06;;;8.65;44.31
35892;BME280;21993;42.672;23.296;2023-03-15T05:51:43;93497.00;;;8.69;44.34
35892;BME280;21993;42.672;23.296;2023-03-15T05:54:09;93496.09;;;8.79;44.51
35892;BME280;21993;42.672;23.296;2023-03-15T05:56:35;93494.34;;;8.61;44.91
35892;BME280;21993;42.672;23.296;2023-03-15T05:59:00;93491.69;;;8.79;44.79
35892;BME280;21993;42.672;23.296;2023-03-15T06:01:27;93502.19;;;8.87;44.23
35892;BME280;21993;42.672;23.296;2023-03-15T06:03:52;93506.75;;;8.85;44.25
35892;BME280;21993;42.672;23.296;2023-03-15T06:06:18;93504.25;;;8.76;44.82
35892;BME280;21993;42.672;23.296;2023-03-15T06:08:43;93498.50;;;8.72;45.46
35892;BME280;21993;42.672;23.296;2023-03-15T06:11:08;93503.38;;;8.67;45.25
35892;BME280;21993;42.672;23.296;2023-03-15T06:13:34;93506.94;;;8.66;45.64
35892;BME280;21993;42.672;23.296;2023-03-15T06:15:59;93498.88;;;8.77;45.90
35892;BME280;21993;42.672;23.296;2023-03-15T06:18:24;93505.69;;;8.70;45.90
35892;BME280;21993;42.672;23.296;2023-03-15T06:20:50;93501.06;;;8.90;45.72
35892;BME280;21993;42.672;23.296;2023-03-15T06:23:15;93505.47;;;8.89;45.77
35892;BME280;21993;42.672;23.296;2023-03-15T06:25:41;93519.19;;;8.83;45.45
35892;BME280;21993;42.672;23.296;2023-03-15T06:28:06;93513.88;;;9.01;44.90
35892;BME280;21993;42.672;23.296;2023-03-15T06:30:32;93503.25;;;9.02;44.85
35892;BME280;21993;42.672;23.296;2023-03-15T06:32:57;93498.38;;;9.16;45.41
35892;BME280;21993;42.672;23.296;2023-03-15T06:35:23;93478.25;;;9.16;45.20
35892;BME280;21993;42.672;23.296;2023-03-15T06:37:48;93487.47;;;9.20;45.46
35892;BME280;21993;42.672;23.296;2023-03-15T06:40:13;93489.91;;;9.22;45.75
35892;BME280;21993;42.672;23.296;2023-03-15T06:42:39;93493.94;;;9.42;44.44
35892;BME280;21993;42.672;23.296;2023-03-15T06:45:06;93500.94;;;9.34;44.38
35892;BME280;21993;42.672;23.296;2023-03-15T06:47:32;93474.09;;;9.40;44.49
35892;BME280;21993;42.672;23.296;2023-03-15T06:49:58;93478.88;;;9.44;44.14
35892;BME280;21993;42.672;23.296;2023-03-15T06:52:23;93486.00;;;9.68;43.87
35892;BME280;21993;42.672;23.296;2023-03-15T06:54:49;93488.25;;;9.63;43.10
35892;BME280;21993;42.672;23.296;2023-03-15T06:57:15;93486.66;;;9.78;43.04
35892;BME280;21993;42.672;23.296;2023-03-15T06:59:40;93480.44;;;9.87;43.07
35892;BME280;21993;42.672;23.296;2023-03-15T07:02:10;93482.59;;;9.84;43.30
35892;BME280;21993;42.672;23.296;2023-03-15T07:04:37;93477.69;;;10.05;42.36
35892;BME280;21993;42.672;23.296;2023-03-15T07:07:03;93476.22;;;10.19;42.08
35892;BME280;21993;42.672;23.296;2023-03-15T07:09:28;93475.84;;;9.90;41.97
35892;BME280;21993;42.672;23.296;2023-03-15T07:11:54;93470.16;;;10.02;42.17
35892;BME280;21993;42.672;23.296;2023-03-15T07:14:19;93475.22;;;10.20;42.21
35892;BME280;21993;42.672;23.296;2023-03-15T07:16:46;93466.41;;;10.29;42.48
35892;BME280;21993;42.672;23.296;2023-03-15T07:19:12;93461.94;;;10.62;41.58
35892;BME280;21993;42.672;23.296;2023-03-15T07:21:37;93466.03;;;10.73;41.16
35892;BME280;21993;42.672;23.296;2023-03-15T07:24:03;93483.38;;;10.82;41.35
35892;BME280;21993;42.672;23.296;2023-03-15T07:26:28;93485.66;;;11.02;40.88
35892;BME280;21993;42.672;23.296;2023-03-15T07:28:54;93489.09;;;11.10;40.68
35892;BME280;21993;42.672;23.296;2023-03-15T07:31:19;93477.69;;;11.26;40.23
35892;BME280;21993;42.672;23.296;2023-03-15T07:33:45;93473.03;;;11.44;39.50
35892;BME280;21993;42.672;23.296;2023-03-15T07:36:10;93460.84;;;11.43;39.83
35892;BME280;21993;42.672;23.296;2023-03-15T07:38:35;93447.72;;;11.43;40.32
35892;BME280;21993;42.672;23.296;2023-03-15T07:41:05;93457.47;;;11.66;40.32
35892;BME280;21993;42.672;23.296;2023-03-15T07:43:31;93459.88;;;11.75;39.73
35892;BME280;21993;42.672;23.296;2023-03-15T07:45:56;93468.88;;;11.89;38.48
35892;BME280;21993;42.672;23.296;2023-03-15T07:48:22;93460.44;;;11.94;39.27
35892;BME280;21993;42.672;23.296;2023-03-15T07:50:47;93459.28;;;12.19;38.81
35892;BME280;21993;42.672;23.296;2023-03-15T07:53:13;93453.31;;;12.25;38.83
35892;BME280;21993;42.672;23.296;2023-03-15T07:55:38;93448.09;;;12.40;38.72
35892;BME280;21993;42.672;23.296;2023-03-15T07:58:03;93451.19;;;12.44;38.10
35892;BME280;21993;42.672;23.296;2023-03-15T08:00:30;93451.22;;;12.58;37.96
35892;BME280;21993;42.672;23.296;2023-03-15T08:02:55;93453.00;;;12.81;38.21
35892;BME280;21993;42.672;23.296;2023-03-15T08:05:21;93444.44;;;12.93;37.93
35892;BME280;21993;42.672;23.296;2023-03-15T08:07:47;93454.06;;;13.01;37.74
35892;BME280;21993;42.672;23.296;2023-03-15T08:10:14;93449.53;;;13.10;37.14
35892;BME280;21993;42.672;23.296;2023-03-15T08:12:40;93452.16;;;13.10;37.64
35892;BME280;21993;42.672;23.296;2023-03-15T08:15:09;93445.25;;;12.94;37.47
35892;BME280;21993;42.672;23.296;2023-03-15T08:17:35;93426.72;;;13.02;36.73
35892;BME280;21993;42.672;23.296;2023-03-15T08:20:00;93432.19;;;13.01;36.93
35892;BME280;21993;42.672;23.296;2023-03-15T08:22:27;93425.84;;;12.95;37.50
35892;BME280;21993;42.672;23.296;2023-03-15T08:24:52;93439.28;;;13.00;36.59
35892;BME280;21993;42.672;23.296;2023-03-15T08:27:18;93440.00;;;12.94;37.07
35892;BME280;21993;42.672;23.296;2023-03-15T08:29:43;93432.91;;;12.94;37.86
35892;BME280;21993;42.672;23.296;2023-03-15T08:32:08;93427.38;;;13.04;37.59
35892;BME280;21993;42.672;23.296;2023-03-15T08:34:34;93431.31;;;13.23;36.91
35892;BME280;21993;42.672;23.296;2023-03-15T08:36:59;93423.75;;;13.20;36.96
35892;BME280;21993;42.672;23.296;2023-03-15T08:39:25;93421.28;;;13.33;36.61
35892;BME280;21993;42.672;23.296;2023-03-15T08:41:50;93426.47;;;13.27;36.92
35892;BME280;21993;42.672;23.296;2023-03-15T08:44:16;93416.75;;;13.42;36.66
35892;BME280;21993;42.672;23.296;2023-03-15T08:46:41;93403.38;;;13.43;37.17
35892;BME280;21993;42.672;23.296;2023-03-15T08:49:06;93405.91;;;13.37;37.42
35892;BME280;21993;42.672;23.296;2023-03-15T08:51:32;93405.91;;;13.51;37.06
35892;BME280;21993;42.672;23.296;2023-03-15T08:53:58;93418.63;;;13.63;37.27
35892;BME280;21993;42.672;23.296;2023-03-15T08:56:24;93420.69;;;13.67;36.91
35892;BME280;21993;42.672;23.296;2023-03-15T08:58:49;93424.13;;;13.68;36.58
35892;BME280;21993;42.672;23.296;2023-03-15T09:01:15;93420.19;;;13.42;37.24
35892;BME280;21993;42.672;23.296;2023-03-15T09:03:40;93424.72;;;13.63;37.17
35892;BME280;21993;42.672;23.296;2023-03-15T09:06:07;93421.41;;;13.61;36.98
35892;BME280;21993;42.672;23.296;2023-03-15T09:08:33;93417.63;;;13.64;37.73
35892;BME280;21993;42.672;23.296;2023-03-15T09:10:59;93418.66;;;13.48;37.64
35892;BME280;21993;42.672;23.296;2023-03-15T09:13:26;93414.81;;;13.50;37.40
35892;BME280;21993;42.672;23.296;2023-03-15T09:15:52;93420.44;;;13.62;37.63
35892;BME280;21993;42.672;23.296;2023-03-15T09:18:18;93417.91;;;13.54;37.69
35892;BME280;21993;42.672;23.296;2023-03-15T09:20:44;93417.25;;;13.52;37.49
35892;BME280;21993;42.672;23.296;2023-03-15T09:23:09;93418.66;;;13.48;37.63
35892;BME280;21993;42.672;23.296;2023-03-15T09:25:35;93421.56;;;13.38;37.75
35892;BME280;21993;42.672;23.296;2023-03-15T09:28:05;93423.41;;;13.38;38.25
35892;BME280;21993;42.672;23.296;2023-03-15T09:30:31;93430.03;;;13.34;38.31
35892;BME280;21993;42.672;23.296;2023-03-15T09:32:56;93412.03;;;13.37;38.21
35892;BME280;21993;42.672;23.296;2023-03-15T09:35:22;93403.47;;;13.35;38.90
35892;BME280;21993;42.672;23.296;2023-03-15T09:37:48;93412.81;;;13.52;38.80
35892;BME280;21993;42.672;23.296;2023-03-15T09:51:06;93389.78;;;13.61;38.01
35892;BME280;21993;42.672;23.296;2023-03-15T09:53:40;93387.94;;;13.62;38.44
35892;BME280;21993;42.672;23.296;2023-03-15T09:56:21;93378.84;;;13.28;38.34
35892;BME280;21993;42.672;23.296;2023-03-15T09:58:51;93386.41;;;13.31;38.75
35892;BME280;21993;42.672;23.296;2023-03-15T10:01:22;93384.44;;;13.55;38.22
35892;BME280;21993;42.672;23.296;2023-03-15T10:03:52;93388.16;;;13.60;37.87
35892;BME280;21993;42.672;23.296;2023-03-15T10:06:25;93394.44;;;13.59;37.97
35892;BME280;21993;42.672;23.296;2023-03-15T10:08:58;93399.06;;;13.57;37.99
35892;BME280;21993;42.672;23.296;2023-03-15T10:16:34;93391.16;;;13.57;38.21
35892;BME280;21993;42.672;23.296;2023-03-15T10:21:51;93396.34;;;13.50;38.26
35892;BME280;21993;42.672;23.296;2023-03-15T10:24:27;93399.69;;;13.38;38.70
35892;BME280;21993;42.672;23.296;2023-03-15T10:26:58;93386.00;;;13.49;38.30
35892;BME280;21993;42.672;23.296;2023-03-15T10:29:28;93398.16;;;13.65;38.65
35892;BME280;21993;42.672;23.296;2023-03-15T10:31:54;93386.91;;;13.77;37.95
35892;BME280;21993;42.672;23.296;2023-03-15T10:34:20;93381.00;;;13.75;37.71
35892;BME280;21993;42.672;23.296;2023-03-15T10:36:49;93380.56;;;13.72;37.72
35892;BME280;21993;42.672;23.296;2023-03-15T10:39:18;93379.19;;;13.76;37.88
35892;BME280;21993;42.672;23.296;2023-03-15T10:41:46;93389.63;;;13.63;38.29
35892;BME280;21993;42.672;23.296;2023-03-15T10:44:15;93398.69;;;13.60;38.36
35892;BME280;21993;42.672;23.296;2023-03-15T10:47:02;93396.72;;;13.62;38.12
35892;BME280;21993;42.672;23.296;2023-03-15T10:49:35;93380.44;;;13.59;38.23
35892;BME280;21993;42.672;23.296;2023-03-15T10:52:01;93383.38;;;13.70;38.62
35892;BME280;21993;42.672;23.296;2023-03-15T10:54:31;93381.03;;;13.61;38.16
35892;BME280;21993;42.672;23.296;2023-03-15T10:57:15;93391.66;;;13.67;38.19
35892;BME280;21993;42.672;23.296;2023-03-15T10:59:56;93394.94;;;13.69;37.89
35892;BME280;21993;42.672;23.296;2023-03-15T11:02:23;93388.97;;;13.61;38.36
35892;BME280;21993;42.672;23.296;2023-03-15T11:04:59;93371.31;;;13.61;38.28
35892;BME280;21993;42.672;23.296;2023-03-15T11:07:26;93373.72;;;13.56;38.58
35892;BME280;21993;42.672;23.296;2023-03-15T11:09:53;93381.44;;;13.58;38.56
35892;BME280;21993;42.672;23.296;2023-03-15T11:12:26;93375.56;;;13.41;38.38
35892;BME280;21993;42.672;23.296;2023-03-15T11:14:57;93370.91;;;13.43;38.82
35892;BME280;21993;42.672;23.296;2023-03-15T11:17:28;93374.84;;;13.47;38.68
35892;BME280;21993;42.672;23.296;2023-03-15T11:22:43;93377.59;;;13.39;38.85
35892;BME280;21993;42.672;23.296;2023-03-15T11:25:15;93373.94;;;13.40;38.49
35892;BME280;21993;42.672;23.296;2023-03-15T11:27:42;93371.41;;;13.32;38.57
35892;BME280;21993;42.672;23.296;2023-03-15T11:30:12;93378.03;;;13.28;38.58
35892;BME280;21993;42.672;23.296;2023-03-15T11:32:38;93384.22;;;13.35;38.55
35892;BME280;21993;42.672;23.296;2023-03-15T11:35:19;93375.13;;;13.37;39.14
35892;BME280;21993;42.672;23.296;2023-03-15T11:37:59;93373.56;;;13.43;40.88
35892;BME280;21993;42.672;23.296;2023-03-15T11:43:00;93357.50;;;13.38;43.66
35892;BME280;21993;42.672;23.296;2023-03-15T11:45:59;93369.28;;;13.42;44.36
35892;BME280;21993;42.672;23.296;2023-03-15T11:48:41;93369.06;;;13.07;44.76
35892;BME280;21993;42.672;23.296;2023-03-15T11:51:10;93356.53;;;13.24;44.24
35892;BME280;21993;42.672;23.296;2023-03-15T11:53:41;93356.34;;;13.26;45.28
35892;BME280;21993;42.672;23.296;2023-03-15T11:59:07;93352.34;;;13.30;44.07
35892;BME280;21993;42.672;23.296;2023-03-15T12:01:35;93355.22;;;13.35;43.77
35892;BME280;21993;42.672;23.296;2023-03-15T12:06:48;93360.16;;;13.59;43.61
35892;BME280;21993;42.672;23.296;2023-03-15T12:17:49;93341.34;;;13.62;45.12
35892;BME280;21993;42.672;23.296;2023-03-15T12:22:51;93333.78;;;13.59;44.94
35892;BME280;21993;42.672;23.296;2023-03-15T12:25:34;93337.16;;;13.53;44.67
35892;BME280;21993;42.672;23.296;2023-03-15T12:28:06;93341.47;;;13.54;44.90
35892;BME280;21993;42.672;23.296;2023-03-15T12:30:39;93332.03;;;13.66;45.12
35892;BME280;21993;42.672;23.296;2023-03-15T12:33:17;93336.88;;;13.63;44.89
35892;BME280;21993;42.672;23.296;2023-03-15T12:35:43;93330.53;;;13.57;44.93
35892;BME280;21993;42.672;23.296;2023-03-15T12:38:18;93317.16;;;13.59;44.72
35892;BME280;21993;42.672;23.296;2023-03-15T12:40:57;93320.41;;;13.61;43.86
35892;BME280;21993;42.672;23.296;2023-03-15T12:43:43;93330.81;;;13.69;43.92
35892;BME280;21993;42.672;23.296;2023-03-15T12:51:42;93318.47;;;13.69;44.12
35892;BME280;21993;42.672;23.296;2023-03-15T12:54:10;93323.31;;;13.66;43.24
35892;BME280;21993;42.672;23.296;2023-03-15T12:56:44;93311.81;;;13.73;43.19
35892;BME280;21993;42.672;23.296;2023-03-15T12:59:21;93314.44;;;13.73;43.24
35892;BME280;21993;42.672;23.296;2023-03-15T13:01:50;93326.81;;;13.73;42.96
35892;BME280;21993;42.672;23.296;2023-03-15T13:04:15;93324.66;;;13.62;42.97
35892;BME280;21993;42.672;23.296;2023-03-15T13:07:06;93317.66;;;13.69;42.54
35892;BME280;21993;42.672;23.296;2023-03-15T13:15:50;93303.28;;;13.71;42.61
35892;BME280;21993;42.672;23.296;2023-03-15T13:18:22;93299.00;;;13.70;42.67
35892;BME280;21993;42.672;23.296;2023-03-15T13:23:36;93311.22;;;13.78;42.70
35892;BME280;21993;42.672;23.296;2023-03-15T13:28:48;93315.34;;;13.80;41.82
35892;BME280;21993;42.672;23.296;2023-03-15T13:31:23;93317.78;;;13.82;41.90
35892;BME280;21993;42.672;23.296;2023-03-15T13:33:52;93322.38;;;13.73;41.96
35892;BME280;21993;42.672;23.296;2023-03-15T13:39:26;93325.56;;;13.90;41.26
35892;BME280;21993;42.672;23.296;2023-03-15T13:42:00;93321.91;;;13.91;41.00
35892;BME280;21993;42.672;23.296;2023-03-15T13:44:26;93317.84;;;13.89;40.81
35892;BME280;21993;42.672;23.296;2023-03-15T13:46:52;93320.09;;;13.92;41.15
35892;BME280;21993;42.672;23.296;2023-03-15T13:49:18;93314.13;;;14.04;41.47
35892;BME280;21993;42.672;23.296;2023-03-15T13:51:46;93314.63;;;13.93;42.26
35892;BME280;21993;42.672;23.296;2023-03-15T13:57:06;93327.25;;;13.76;42.91
35892;BME280;21993;42.672;23.296;2023-03-15T14:05:00;93333.22;;;13.64;44.29
35892;BME280;21993;42.672;23.296;2023-03-15T14:07:35;93332.28;;;13.71;44.67
35892;BME280;21993;42.672;23.296;2023-03-15T14:12:40;93325.69;;;13.82;44.66
35892;BME280;21993;42.672;23.296;2023-03-15T14:15:16;93328.06;;;13.77;44.76
35892;BME280;21993;42.672;23.296;2023-03-15T14:17:57;93329.94;;;13.83;45.10